EGSS/STN METAR and TAF weather

Enter ICAO airport designator
Station Type Date Time Source
EGSS METAR 2021/10/22 19:50 UTC NOAA

EGSS 221950Z AUTO 25004KT 9999 BKN029 10/08 Q1023


Station Type Date Time Source
EGSS Decoded METAR 2021/10/22 19:50 UTC NOAA

Stansted Airport, United Kingdom (EGSS) 51-53N 000-14E 0M
Oct 22, 2021 - 03:50 PM EDT / 2021.10.22 1950 UTC
Wind: from the WSW (250 degrees) at 5 MPH (4 KT):0
Visibility: greater than 7 mile(s):0
Sky conditions: mostly cloudy
Temperature: 50 F (10 C)
Dew Point: 46 F (8 C)
Relative Humidity: 87%
Pressure (altimeter): 30.21 in. Hg (1023 hPa)
ob: EGSS 221950Z AUTO 25004KT 9999 BKN029 10/08 Q1023
cycle: 20

Station Type Date Time Source
EGSS TAF 2021/10/22 18:09 UTC NOAA

TAF EGSS 221704Z 2218/2324 28010KT 9999 FEW043
BECMG 2223/2302 20005KT PROB40 2303/2308 5000 BR

Example: see airport list